createdAt,value
2018-08-20T00:00:17.876Z,1.6
2018-08-20T00:02:17.701Z,1.1
2018-08-20T00:04:18.469Z,1.4
2018-08-20T00:06:18.024Z,2
2018-08-20T00:08:17.800Z,1.6
2018-08-20T00:10:18.035Z,1.8
2018-08-20T00:12:17.814Z,1.3
2018-08-20T00:14:17.611Z,1.2
2018-08-20T00:16:17.665Z,2.1
2018-08-20T00:18:18.537Z,1.5
2018-08-20T00:20:18.366Z,1.9
2018-08-20T00:22:18.148Z,1.6
2018-08-20T00:24:17.941Z,1.5
2018-08-20T00:26:18.481Z,1.5
2018-08-20T00:28:18.243Z,1.4
2018-08-20T00:30:18.009Z,2
2018-08-20T00:32:17.818Z,2.2
2018-08-20T00:34:17.618Z,1.6
2018-08-20T00:36:17.710Z,1.6
2018-08-20T00:38:18.485Z,1.1
2018-08-20T00:40:17.746Z,1.2
2018-08-20T00:42:17.551Z,1.7
2018-08-20T00:44:18.328Z,1.1
2018-08-20T00:46:18.397Z,1.3
2018-08-20T00:48:18.226Z,1.8
2018-08-20T00:50:18.010Z,1.7
2018-08-20T00:52:17.805Z,1.6
2018-08-20T00:54:17.613Z,1.8
2018-08-20T00:56:18.128Z,2
2018-08-20T00:58:17.944Z,1.9
2018-08-20T01:00:17.735Z,1.7
2018-08-20T01:02:18.502Z,1.6
2018-08-20T01:04:18.287Z,2.1
2018-08-20T01:06:18.389Z,1.7
2018-08-20T01:08:18.168Z,1.6
2018-08-20T01:10:18.441Z,1.4
2018-08-20T01:12:18.256Z,2.4
2018-08-20T01:14:18.048Z,1.6
2018-08-20T01:16:17.635Z,1.4
2018-08-20T01:18:18.527Z,1.8
2018-08-20T01:20:18.313Z,1.6
2018-08-20T01:22:18.137Z,1.5
2018-08-20T01:24:17.919Z,2
2018-08-20T01:26:17.949Z,2.1
2018-08-20T01:28:17.760Z,1.6
2018-08-20T01:30:17.539Z,1.8
2018-08-20T01:32:18.336Z,2
2018-08-20T01:34:18.111Z,1.5
2018-08-20T01:36:17.620Z,1.9
2018-08-20T01:38:18.415Z,2.1
2018-08-20T01:40:17.842Z,2.4
2018-08-20T01:42:17.617Z,1.9
2018-08-20T01:44:18.400Z,1.8
2018-08-20T01:46:18.006Z,1.4
2018-08-20T01:48:17.795Z,1.8
2018-08-20T01:50:17.604Z,2.3
2018-08-20T01:52:18.389Z,2.2
2018-08-20T01:54:18.194Z,2.1
2018-08-20T01:56:18.280Z,1.5
2018-08-20T01:58:18.093Z,2.3
2018-08-20T02:00:17.890Z,1.8
2018-08-20T02:02:17.717Z,2.1
2018-08-20T02:04:18.515Z,1.8
2018-08-20T02:06:18.139Z,2.3
2018-08-20T02:08:17.972Z,2.1
2018-08-20T02:10:18.212Z,2.2
2018-08-20T02:12:18.039Z,2
2018-08-20T02:14:17.836Z,2.1
2018-08-20T02:16:18.385Z,2.5
2018-08-20T02:18:18.267Z,2.5
2018-08-20T02:20:18.037Z,2.4
2018-08-20T02:22:17.790Z,2.6
2018-08-20T02:24:17.578Z,2.4
2018-08-20T02:26:18.158Z,2.5
2018-08-20T02:28:17.945Z,2.3
2018-08-20T02:30:17.754Z,2.7
2018-08-20T02:32:17.563Z,2.4
2018-08-20T02:34:18.345Z,1.9
2018-08-20T02:36:18.446Z,2.3
2018-08-20T02:38:18.247Z,2.2
2018-08-20T02:40:18.556Z,2.4
2018-08-20T02:42:18.378Z,2.5
2018-08-20T02:44:18.172Z,1.8
2018-08-20T02:46:17.693Z,2.8
2018-08-20T02:48:18.495Z,2.2
2018-08-20T02:50:18.422Z,2.7
2018-08-20T02:52:18.232Z,2.3
2018-08-20T02:54:17.990Z,2.8
2018-08-20T02:56:18.122Z,2.8
2018-08-20T02:58:17.920Z,2.5
2018-08-20T03:00:17.718Z,2.6
2018-08-20T03:02:18.519Z,2.5
2018-08-20T03:04:18.340Z,2.3
2018-08-20T03:06:18.401Z,3.3
2018-08-20T03:08:18.187Z,2.7
2018-08-20T03:10:18.461Z,2.7
2018-08-20T03:12:18.251Z,2.7
2018-08-20T03:14:18.057Z,2.3
2018-08-20T03:16:18.155Z,2.5
2018-08-20T03:18:18.008Z,3.1
2018-08-20T03:20:17.799Z,2.3
2018-08-20T03:22:17.570Z,3
2018-08-20T03:24:18.352Z,3.2
2018-08-20T03:26:18.433Z,2.8
2018-08-20T03:28:18.267Z,2.9
2018-08-20T03:30:18.089Z,3
2018-08-20T03:32:17.871Z,3.1
2018-08-20T03:34:17.660Z,3.3
2018-08-20T03:36:18.283Z,2.8
2018-08-20T03:38:18.066Z,3
2018-08-20T03:40:18.362Z,3.3
2018-08-20T03:42:18.120Z,2.8
2018-08-20T03:44:17.935Z,3.4
2018-08-20T03:46:18.450Z,2.9
2018-08-20T03:48:18.214Z,2.4
2018-08-20T03:50:17.994Z,3.1
2018-08-20T03:52:17.819Z,3
2018-08-20T03:54:17.600Z,3.7
2018-08-20T03:56:17.710Z,3.2
2018-08-20T03:58:18.511Z,3.6
2018-08-20T04:00:18.341Z,3.3
2018-08-20T04:02:18.109Z,3.5
2018-08-20T04:04:17.927Z,4
2018-08-20T04:06:17.564Z,3.9
2018-08-20T04:08:18.354Z,4
2018-08-20T04:10:17.673Z,3.4
2018-08-20T04:12:18.221Z,3.4
2018-08-20T04:14:18.013Z,3
2018-08-20T04:16:17.642Z,3.9
2018-08-20T04:18:18.488Z,3.8
2018-08-20T04:20:18.256Z,3.5
2018-08-20T04:22:18.050Z,3.4
2018-08-20T04:24:17.831Z,4.4
2018-08-20T04:26:17.547Z,2.8
2018-08-20T04:28:18.371Z,3.4
2018-08-20T04:30:18.171Z,4.1
2018-08-20T04:32:17.725Z,3.6
2018-08-20T04:34:18.546Z,3
2018-08-20T04:36:18.150Z,2.8
2018-08-20T04:38:17.976Z,3.2
2018-08-20T04:40:18.319Z,3.2
2018-08-20T04:42:18.236Z,3.3
2018-08-20T04:44:18.168Z,3.4
2018-08-20T04:46:18.254Z,3.9
2018-08-20T04:48:18.003Z,4.1
2018-08-20T04:50:18.060Z,3.8
2018-08-20T04:52:17.618Z,3.5
2018-08-20T04:54:18.424Z,2.9
2018-08-20T04:56:18.021Z,4.3
2018-08-20T04:58:17.788Z,4
2018-08-20T05:00:17.572Z,3.8
2018-08-20T05:02:18.408Z,4.1
2018-08-20T05:04:18.206Z,4.7
2018-08-20T05:06:17.681Z,3.9
2018-08-20T05:08:18.475Z,4.7
2018-08-20T05:10:17.730Z,4.3
2018-08-20T05:12:18.490Z,4.8
2018-08-20T05:14:18.259Z,4.5
2018-08-20T05:16:17.735Z,4.3
2018-08-20T05:18:17.627Z,3.8
2018-08-20T05:20:18.446Z,4.3
2018-08-20T05:22:17.521Z,4.3
2018-08-20T05:24:18.316Z,3.4
2018-08-20T05:26:18.320Z,5.2
2018-08-20T05:28:18.072Z,4.9
2018-08-20T05:30:17.842Z,4.4
2018-08-20T05:32:17.633Z,4.3
2018-08-20T05:34:18.442Z,4
2018-08-20T05:36:18.026Z,3.9
2018-08-20T05:38:17.819Z,3.5
2018-08-20T05:40:18.071Z,4.1
2018-08-20T05:42:17.831Z,4.1
2018-08-20T05:44:17.615Z,4.6
2018-08-20T05:46:18.168Z,4.6
2018-08-20T05:48:17.967Z,4.1
2018-08-20T05:50:17.816Z,4.7
2018-08-20T05:52:17.628Z,4.3
2018-08-20T05:54:18.445Z,4.4
2018-08-20T05:56:17.973Z,4
2018-08-20T05:58:17.786Z,4.4
2018-08-20T06:00:17.591Z,3.9
2018-08-20T06:02:18.372Z,3.7
2018-08-20T06:04:18.150Z,3.7
2018-08-20T06:06:17.740Z,5
2018-08-20T06:08:17.535Z,3.7
2018-08-20T06:10:17.787Z,4.4
2018-08-20T06:12:17.552Z,4.1
2018-08-20T06:14:18.321Z,4.3
2018-08-20T06:16:18.470Z,4.2
2018-08-20T06:18:18.334Z,4.2
2018-08-20T06:20:18.092Z,4.4
2018-08-20T06:22:17.862Z,3.5
2018-08-20T06:24:17.651Z,4.9
2018-08-20T06:26:17.878Z,3.9
2018-08-20T06:28:17.654Z,5.2
2018-08-20T06:30:18.435Z,4
2018-08-20T06:32:18.244Z,3.8
2018-08-20T06:34:18.026Z,4
2018-08-20T06:36:18.159Z,4.6
2018-08-20T06:38:17.951Z,3.9
2018-08-20T06:40:18.226Z,4.8
2018-08-20T06:42:18.002Z,4.8
2018-08-20T06:44:17.778Z,4.4
2018-08-20T06:46:18.382Z,4.4
2018-08-20T06:48:18.150Z,4.4
2018-08-20T06:50:17.968Z,4
2018-08-20T06:52:17.722Z,3.8
2018-08-20T06:54:18.506Z,4.1
2018-08-20T06:56:18.084Z,4
2018-08-20T06:58:17.867Z,3.8
2018-08-20T07:00:17.683Z,4.1
2018-08-20T07:02:18.491Z,4.7
2018-08-20T07:04:18.256Z,4.7
2018-08-20T07:06:18.438Z,4.4
2018-08-20T07:08:18.338Z,5.2
2018-08-20T07:10:17.682Z,3.7
2018-08-20T07:12:18.466Z,3.9
2018-08-20T07:14:18.260Z,4.3
2018-08-20T07:16:17.896Z,4.5
2018-08-20T07:18:17.826Z,4
2018-08-20T07:20:17.628Z,3.7
2018-08-20T07:22:18.486Z,3.4
2018-08-20T07:24:18.295Z,4.2
2018-08-20T07:26:17.820Z,4.6
2018-08-20T07:28:17.608Z,4.6
2018-08-20T07:30:18.424Z,5.4
2018-08-20T07:32:18.217Z,4.4
2018-08-20T07:34:18.017Z,4.8
2018-08-20T07:36:18.109Z,5.4
2018-08-20T07:38:17.927Z,4.3
2018-08-20T07:40:18.194Z,4.2
2018-08-20T07:42:17.975Z,4.4
2018-08-20T07:44:17.843Z,3.7
2018-08-20T07:46:18.041Z,4.3
2018-08-20T07:48:17.821Z,4.1
2018-08-20T07:50:17.645Z,4.7
2018-08-20T07:52:18.456Z,4
2018-08-20T07:54:18.260Z,3.9
2018-08-20T07:56:17.843Z,5.1
2018-08-20T07:58:17.642Z,5.2
2018-08-20T08:00:18.462Z,4.7
2018-08-20T08:02:17.581Z,4.7
2018-08-20T08:04:18.386Z,4.8
2018-08-20T08:06:18.482Z,4.7
2018-08-20T08:08:18.289Z,3.7
2018-08-20T08:10:17.566Z,4.5
2018-08-20T08:12:18.376Z,3.8
2018-08-20T08:14:18.200Z,4.4
2018-08-20T08:16:18.406Z,3.9
2018-08-20T08:18:18.285Z,3.2
2018-08-20T08:20:18.178Z,3.8
2018-08-20T08:22:17.946Z,3.7
2018-08-20T08:24:17.737Z,4
2018-08-20T08:26:18.340Z,2.8
2018-08-20T08:28:18.109Z,3.8
2018-08-20T08:30:17.897Z,3.3
2018-08-20T08:32:17.699Z,3
2018-08-20T08:34:18.461Z,1.8
2018-08-20T08:36:18.025Z,2.1
2018-08-20T08:38:17.800Z,2.5
2018-08-20T08:40:18.033Z,2.6
2018-08-20T08:42:17.844Z,3.2
2018-08-20T08:44:17.634Z,2.3
2018-08-20T08:46:17.688Z,2.1
2018-08-20T08:48:18.507Z,2.2
2018-08-20T08:50:18.309Z,2.5
2018-08-20T08:52:18.100Z,1.5
2018-08-20T08:54:17.905Z,1.7
2018-08-20T08:56:17.608Z,2.1
2018-08-20T08:58:18.415Z,1.8
2018-08-20T09:00:18.190Z,1.7
2018-08-20T09:02:17.972Z,1.8
2018-08-20T09:04:17.740Z,2.1
2018-08-20T09:06:18.326Z,1.7
2018-08-20T09:08:18.139Z,2.1
2018-08-20T09:10:18.457Z,1.8
2018-08-20T09:12:18.256Z,1.6
2018-08-20T09:14:18.067Z,1.5
2018-08-20T09:16:17.639Z,1.8
2018-08-20T09:18:18.511Z,1.5
2018-08-20T09:20:18.307Z,1.8
2018-08-20T09:22:18.091Z,1.6
2018-08-20T09:24:17.918Z,2.1
2018-08-20T09:26:18.478Z,1.6
2018-08-20T09:28:18.246Z,1.3
2018-08-20T09:30:18.084Z,1.7
2018-08-20T09:32:17.891Z,1.7
2018-08-20T09:34:17.886Z,2.4
2018-08-20T09:36:17.546Z,1.9
2018-08-20T09:38:18.383Z,1.9
2018-08-20T09:40:17.792Z,1.3
2018-08-20T09:42:17.583Z,1.3
2018-08-20T09:44:18.364Z,2
2018-08-20T09:46:17.912Z,1.6
2018-08-20T09:48:17.709Z,1.8
2018-08-20T09:50:18.506Z,1.4
2018-08-20T09:52:18.310Z,1.5
2018-08-20T09:54:18.083Z,1.3
2018-08-20T09:56:18.173Z,1.6
2018-08-20T09:58:17.996Z,1.3
2018-08-20T10:00:17.785Z,1.7
2018-08-20T10:02:17.624Z,1.5
2018-08-20T10:04:18.441Z,2.3
2018-08-20T10:06:17.957Z,1.9
2018-08-20T10:08:17.741Z,1.6
2018-08-20T10:10:17.999Z,1.6
2018-08-20T10:12:17.789Z,1.2
2018-08-20T10:14:17.611Z,1.3
2018-08-20T10:16:17.660Z,1.5
2018-08-20T10:18:18.577Z,1.8
2018-08-20T10:20:18.419Z,1.5
2018-08-20T10:22:18.198Z,1.6
2018-08-20T10:24:17.984Z,1.1
2018-08-20T10:26:17.714Z,1.1
2018-08-20T10:28:18.509Z,1.4
2018-08-20T10:30:18.314Z,1.1
2018-08-20T10:32:18.080Z,1
2018-08-20T10:34:17.891Z,0.9
2018-08-20T10:36:17.983Z,1.1
2018-08-20T10:38:17.753Z,1
2018-08-20T10:40:17.984Z,1.1
2018-08-20T10:42:17.794Z,1.1
2018-08-20T10:44:17.596Z,0.8
2018-08-20T10:46:18.168Z,0.8
2018-08-20T10:48:17.978Z,1.2
2018-08-20T10:50:17.798Z,1.1
2018-08-20T10:52:17.606Z,1
2018-08-20T10:54:18.408Z,1.3
2018-08-20T10:56:18.008Z,1
2018-08-20T10:58:17.833Z,0.6
2018-08-20T11:00:17.626Z,1
2018-08-20T11:02:18.351Z,0.9
2018-08-20T11:04:18.187Z,0.6
2018-08-20T11:06:17.942Z,0.8
2018-08-20T11:08:17.753Z,0.9
2018-08-20T11:10:18.052Z,0.7
2018-08-20T11:12:17.846Z,0.9
2018-08-20T11:14:17.628Z,0.7
2018-08-20T11:16:18.356Z,1.1
2018-08-20T11:18:18.249Z,0.5
2018-08-20T11:20:18.129Z,0.6
2018-08-20T11:22:17.940Z,0.8
2018-08-20T11:24:17.748Z,0.7
2018-08-20T11:26:18.351Z,0.6
2018-08-20T11:28:18.150Z,0.7
2018-08-20T11:30:18.024Z,1.2
2018-08-20T11:32:18.018Z,0.7
2018-08-20T11:34:17.823Z,0.5
2018-08-20T11:36:18.378Z,0.6
2018-08-20T11:38:18.218Z,0.6
2018-08-20T11:40:18.517Z,0.5
2018-08-20T11:42:18.306Z,0.4
2018-08-20T11:44:18.143Z,0.5
2018-08-20T11:46:17.685Z,0.7
2018-08-20T11:48:18.449Z,0.2
2018-08-20T11:50:18.240Z,0.6
2018-08-20T11:52:18.021Z,0.3
2018-08-20T11:54:17.863Z,0.7
2018-08-20T11:56:18.451Z,0.7
2018-08-20T11:58:18.238Z,0.5
2018-08-20T12:00:18.073Z,0.4
2018-08-20T12:02:17.820Z,0.7
2018-08-20T12:04:17.617Z,0.5
2018-08-20T12:06:18.203Z,0.4
2018-08-20T12:08:17.995Z,0.3
2018-08-20T12:10:18.322Z,0.4
2018-08-20T12:12:18.151Z,0.7
2018-08-20T12:14:17.954Z,0.6
2018-08-20T12:16:17.584Z,0.4
2018-08-20T12:18:18.479Z,0.3
2018-08-20T12:20:18.268Z,0.6
2018-08-20T12:22:18.125Z,0.5
2018-08-20T12:24:18.007Z,0.4
2018-08-20T12:26:18.078Z,0.5
2018-08-20T12:28:17.945Z,0.8
2018-08-20T12:30:17.859Z,0.6
2018-08-20T12:32:17.669Z,0.4
2018-08-20T12:34:18.528Z,0.7
2018-08-20T12:36:17.737Z,0.6
2018-08-20T12:38:18.514Z,0.6
2018-08-20T12:40:17.921Z,0.4
2018-08-20T12:42:17.964Z,0.9
2018-08-20T12:44:17.753Z,0.4
2018-08-20T12:46:17.829Z,0.8
2018-08-20T12:48:17.634Z,0.5
2018-08-20T12:50:18.477Z,0.7
2018-08-20T12:52:18.250Z,0.5
2018-08-20T12:54:18.064Z,0.6
2018-08-20T12:56:17.803Z,0.6
2018-08-20T12:58:17.614Z,0.7
2018-08-20T13:00:18.403Z,0.6
2018-08-20T13:02:18.212Z,0.4
2018-08-20T13:04:18.028Z,0.4
2018-08-20T13:06:18.091Z,0.4
2018-08-20T13:08:17.902Z,0.6
2018-08-20T13:10:18.182Z,0.9
2018-08-20T13:12:18.007Z,0.9
2018-08-20T13:14:17.824Z,0.8
2018-08-20T13:16:18.502Z,0.4
2018-08-20T13:18:17.593Z,0.3
2018-08-20T13:20:18.384Z,0.5
2018-08-20T13:22:18.194Z,0.3
2018-08-20T13:24:18.027Z,0.4
2018-08-20T13:26:17.544Z,0.5
2018-08-20T13:28:18.369Z,0.3
2018-08-20T13:30:18.135Z,0.2
2018-08-20T13:32:17.928Z,0.4
2018-08-20T13:34:17.746Z,0.4
2018-08-20T13:36:18.410Z,0.6
2018-08-20T13:38:18.194Z,0.3
2018-08-20T13:40:18.504Z,0.5
2018-08-20T13:42:18.280Z,0.5
2018-08-20T13:44:18.051Z,0.4
2018-08-20T13:46:17.607Z,0.4
2018-08-20T13:48:18.393Z,0.9
2018-08-20T13:50:18.298Z,0.9
2018-08-20T13:52:18.250Z,0.7
2018-08-20T13:54:18.059Z,0.8
2018-08-20T13:56:17.593Z,1.2
2018-08-20T13:58:18.413Z,0.8
2018-08-20T14:00:18.215Z,0.5
2018-08-20T14:02:18.051Z,0.8
2018-08-20T14:04:17.853Z,0.8
2018-08-20T14:06:17.949Z,1
2018-08-20T14:08:17.723Z,1.1
2018-08-20T14:10:18.006Z,0.9
2018-08-20T14:12:17.807Z,0.8
2018-08-20T14:14:17.605Z,0.6
2018-08-20T14:16:18.208Z,0.6
2018-08-20T14:18:18.144Z,0.8
2018-08-20T14:20:17.937Z,0.6
2018-08-20T14:22:17.753Z,0.9
2018-08-20T14:24:17.553Z,0.8
2018-08-20T14:26:18.228Z,0.4
2018-08-20T14:28:18.082Z,0.5
2018-08-20T14:30:17.877Z,0.7
2018-08-20T14:32:17.675Z,0.8
2018-08-20T14:34:18.497Z,0.5
2018-08-20T14:36:18.268Z,0.5
2018-08-20T14:38:18.124Z,0.7
2018-08-20T14:40:18.400Z,0.6
2018-08-20T14:42:18.296Z,1.2
2018-08-20T14:44:18.248Z,0.8
2018-08-20T14:46:18.449Z,0.3
2018-08-20T14:48:18.238Z,0.7
2018-08-20T14:50:18.081Z,0.6
2018-08-20T14:52:17.898Z,0.4
2018-08-20T14:54:17.710Z,0.6
2018-08-20T14:56:18.271Z,0.6
2018-08-20T14:58:18.082Z,0.4
2018-08-20T15:00:17.945Z,0.6
2018-08-20T15:02:17.857Z,1.3
2018-08-20T15:04:17.640Z,0.6
2018-08-20T15:06:18.247Z,0.8
2018-08-20T15:08:18.060Z,0.5
2018-08-20T15:10:18.362Z,0.6
2018-08-20T15:12:18.149Z,0.4
2018-08-20T15:14:17.948Z,0.6
2018-08-20T15:16:17.583Z,0.5
2018-08-20T15:18:18.475Z,0.9
2018-08-20T15:20:18.301Z,0.8
2018-08-20T15:22:18.118Z,0.7
2018-08-20T15:24:17.912Z,0.8
2018-08-20T15:26:17.636Z,1
2018-08-20T15:28:18.490Z,0.7
2018-08-20T15:30:18.330Z,0.4
2018-08-20T15:32:18.121Z,0.5
2018-08-20T15:34:17.988Z,0.5
2018-08-20T15:36:18.066Z,1
2018-08-20T15:38:17.855Z,0.7
2018-08-20T15:40:18.159Z,0.8
2018-08-20T15:42:17.998Z,1.6
2018-08-20T15:44:17.768Z,0.8
2018-08-20T15:46:17.863Z,0.7
2018-08-20T15:48:17.876Z,0.7
2018-08-20T15:50:17.758Z,0.8
2018-08-20T15:52:17.576Z,0.6
2018-08-20T15:54:18.380Z,0.8
2018-08-20T15:56:18.434Z,0.6
2018-08-20T15:58:18.268Z,0.4
2018-08-20T16:00:18.062Z,0.5
2018-08-20T16:02:17.905Z,0.6
2018-08-20T16:04:17.678Z,0.6
2018-08-20T16:06:17.746Z,0.9
2018-08-20T16:08:18.533Z,0.5
2018-08-20T16:10:17.825Z,0.6
2018-08-20T16:12:17.614Z,0.7
2018-08-20T16:14:18.393Z,0.5
2018-08-20T16:16:18.022Z,0.8
2018-08-20T16:18:17.898Z,0.6
2018-08-20T16:20:17.698Z,0.6
2018-08-20T16:22:18.508Z,0.6
2018-08-20T16:24:18.353Z,0.5
2018-08-20T16:26:18.421Z,0.7
2018-08-20T16:28:18.200Z,0.9
2018-08-20T16:30:18.013Z,0.8
2018-08-20T16:32:17.797Z,0.6
2018-08-20T16:34:17.590Z,0.4
2018-08-20T16:36:17.644Z,0.7
2018-08-20T16:38:18.442Z,0.6
2018-08-20T16:40:17.704Z,0.7
2018-08-20T16:42:18.514Z,0.6
2018-08-20T16:44:18.269Z,0.3
2018-08-20T16:46:17.582Z,0.7
2018-08-20T16:48:18.352Z,0.6
2018-08-20T16:50:18.128Z,0.6
2018-08-20T16:52:17.921Z,0.5
2018-08-20T16:54:17.710Z,0.7
2018-08-20T16:56:18.270Z,0.5
2018-08-20T16:58:18.091Z,0.8
2018-08-20T17:00:17.893Z,0.5
2018-08-20T17:02:17.683Z,0.8
2018-08-20T17:04:18.502Z,0.4
2018-08-20T17:06:17.566Z,0.4
2018-08-20T17:08:18.345Z,0.4
2018-08-20T17:10:17.582Z,0.8
2018-08-20T17:12:18.402Z,0.5
2018-08-20T17:14:18.206Z,0.5
2018-08-20T17:16:17.796Z,0.5
2018-08-20T17:18:17.687Z,0.5
2018-08-20T17:20:18.454Z,0.4
2018-08-20T17:22:18.242Z,0.8
2018-08-20T17:24:18.035Z,0.6
2018-08-20T17:26:18.117Z,0.5
2018-08-20T17:28:17.933Z,0.6
2018-08-20T17:30:17.711Z,0.4
2018-08-20T17:32:18.515Z,0.7
2018-08-20T17:34:18.320Z,0.4
2018-08-20T17:36:17.848Z,0.7
2018-08-20T17:38:17.647Z,0.7
2018-08-20T17:40:17.940Z,0.4
2018-08-20T17:42:17.762Z,0.4
2018-08-20T17:44:17.634Z,0.7
2018-08-20T17:46:18.188Z,0.6
2018-08-20T17:48:18.021Z,0.5
2018-08-20T17:50:17.798Z,0.3
2018-08-20T17:52:17.603Z,0.5
2018-08-20T17:54:18.384Z,0.7
2018-08-20T17:56:18.097Z,0.6
2018-08-20T17:58:17.904Z,0.7
2018-08-20T18:00:17.725Z,0.8
2018-08-20T18:02:18.496Z,0.4
2018-08-20T18:04:18.304Z,0.7
2018-08-20T18:06:18.335Z,0.7
2018-08-20T18:08:18.103Z,1
2018-08-20T18:10:18.341Z,1
2018-08-20T18:12:18.114Z,0.6
2018-08-20T18:14:17.889Z,0.5
2018-08-20T18:16:18.525Z,0.6
2018-08-20T18:18:18.395Z,0.7
2018-08-20T18:20:18.216Z,0.6
2018-08-20T18:22:17.995Z,0.5
2018-08-20T18:24:17.773Z,0.5
2018-08-20T18:26:17.884Z,0.8
2018-08-20T18:28:17.659Z,1
2018-08-20T18:30:18.523Z,0.4
2018-08-20T18:32:17.594Z,0.5
2018-08-20T18:34:18.399Z,0.7
2018-08-20T18:36:18.537Z,0.4
2018-08-20T18:38:18.340Z,0.6
2018-08-20T18:40:17.611Z,0.5
2018-08-20T18:42:18.388Z,0.8
2018-08-20T18:44:18.207Z,0.8
2018-08-20T18:46:17.970Z,0.8
2018-08-20T18:48:17.741Z,0.5
2018-08-20T18:50:17.605Z,0.6
2018-08-20T18:52:18.412Z,0.6
2018-08-20T18:54:18.196Z,0.9
2018-08-20T18:56:18.317Z,0.7
2018-08-20T18:58:18.123Z,0.9
2018-08-20T19:00:17.963Z,0.8
2018-08-20T19:02:17.979Z,0.6
2018-08-20T19:04:17.767Z,0.6
2018-08-20T19:06:18.063Z,0.6
2018-08-20T19:08:17.857Z,0.8
2018-08-20T19:10:18.143Z,0.7
2018-08-20T19:12:17.915Z,0.5
2018-08-20T19:14:17.824Z,0.5
2018-08-20T19:16:17.580Z,0.4
2018-08-20T19:18:18.464Z,0.8
2018-08-20T19:20:18.256Z,0.5
2018-08-20T19:22:18.064Z,0.5
2018-08-20T19:24:17.937Z,0.5
2018-08-20T19:26:18.541Z,0.6
2018-08-20T19:28:18.323Z,0.6
2018-08-20T19:30:18.215Z,0.5
2018-08-20T19:32:18.013Z,0.5
2018-08-20T19:34:17.782Z,0.5
2018-08-20T19:36:17.894Z,0.7
2018-08-20T19:38:17.676Z,0.8
2018-08-20T19:40:17.967Z,0.7
2018-08-20T19:42:17.744Z,0.8
2018-08-20T19:44:17.566Z,0.4
2018-08-20T19:46:18.161Z,0.6
2018-08-20T19:48:17.991Z,0.5
2018-08-20T19:50:17.769Z,0.4
2018-08-20T19:52:17.610Z,0.5
2018-08-20T19:54:18.510Z,0.7
2018-08-20T19:56:17.566Z,0.5
2018-08-20T19:58:18.456Z,0.5
2018-08-20T20:00:18.285Z,0.3
2018-08-20T20:02:18.078Z,0.3
2018-08-20T20:04:17.890Z,0.5
2018-08-20T20:06:18.418Z,0.3
2018-08-20T20:08:18.207Z,0.5
2018-08-20T20:10:18.471Z,0.6
2018-08-20T20:12:18.289Z,0.4
2018-08-20T20:14:18.213Z,0.5
2018-08-20T20:16:17.767Z,0.2
2018-08-20T20:18:17.643Z,0.3
2018-08-20T20:20:18.454Z,0.4
2018-08-20T20:22:18.231Z,0.5
2018-08-20T20:24:18.012Z,0.6
2018-08-20T20:26:18.575Z,0.3
2018-08-20T20:28:18.341Z,0.2
2018-08-20T20:30:18.101Z,0.4
2018-08-20T20:32:17.836Z,0.3
2018-08-20T20:34:17.613Z,0.3
2018-08-20T20:36:18.201Z,0.4
2018-08-20T20:38:18.064Z,0.4
2018-08-20T20:40:18.558Z,0.5
2018-08-20T20:42:18.328Z,0.3
2018-08-20T20:44:18.108Z,0.4
2018-08-20T20:46:18.194Z,0.4
2018-08-20T20:48:17.993Z,0.4
2018-08-20T20:50:17.825Z,0.5
2018-08-20T20:52:17.632Z,0.4
2018-08-20T20:54:18.411Z,0.2
2018-08-20T20:56:18.473Z,0.3
2018-08-20T20:58:18.244Z,0.3
2018-08-20T21:00:18.069Z,0.3
2018-08-20T21:02:17.860Z,0.3
2018-08-20T21:04:17.647Z,0.2
2018-08-20T21:06:17.795Z,0.5
2018-08-20T21:08:17.561Z,0.3
2018-08-20T21:10:17.816Z,0.3
2018-08-20T21:12:17.608Z,0.3
2018-08-20T21:14:18.388Z,0.1
2018-08-20T21:16:17.953Z,0.5
2018-08-20T21:18:17.796Z,0.3
2018-08-20T21:20:17.627Z,0.3
2018-08-20T21:22:18.300Z,0.4
2018-08-20T21:24:18.092Z,0.3
2018-08-20T21:26:17.897Z,0.3
2018-08-20T21:28:17.707Z,0.1
2018-08-20T21:30:18.523Z,0.3
2018-08-20T21:32:18.310Z,0.2
2018-08-20T21:34:18.119Z,0.2
2018-08-20T21:36:18.187Z,0.2
2018-08-20T21:38:18.059Z,0.3
2018-08-20T21:40:18.326Z,0.3
2018-08-20T21:42:18.106Z,0.3
2018-08-20T21:44:17.875Z,0.2
2018-08-20T21:46:18.406Z,0.2
2018-08-20T21:48:18.191Z,0.2
2018-08-20T21:50:17.988Z,0.2
2018-08-20T21:52:17.797Z,0.4
2018-08-20T21:54:17.599Z,0.2
2018-08-20T21:56:17.665Z,0.3
2018-08-20T21:58:18.471Z,0.3
2018-08-20T22:00:18.283Z,0.3
2018-08-20T22:02:18.056Z,0.2
2018-08-20T22:04:17.875Z,0.3
2018-08-20T22:06:17.934Z,0.1
2018-08-20T22:08:17.713Z,0.5
2018-08-20T22:10:18.072Z,0.3
2018-08-20T22:12:17.877Z,0.7
2018-08-20T22:14:17.686Z,0.3
2018-08-20T22:16:18.228Z,0.2
2018-08-20T22:18:18.088Z,0.1
2018-08-20T22:20:17.960Z,0.2
2018-08-20T22:22:17.796Z,0.3
2018-08-20T22:24:17.559Z,0.2
2018-08-20T22:26:17.689Z,0.5
2018-08-20T22:28:18.517Z,0.3
2018-08-20T22:30:18.319Z,0
2018-08-20T22:32:18.140Z,0.1
2018-08-20T22:34:17.930Z,0.2
2018-08-20T22:36:17.995Z,0.1
2018-08-20T22:38:17.814Z,0.1
2018-08-20T22:40:18.146Z,0.1
2018-08-20T22:42:17.941Z,0.1
2018-08-20T22:44:17.773Z,0.3
2018-08-20T22:46:18.503Z,0.3
2018-08-20T22:48:18.267Z,0.5
2018-08-20T22:50:18.060Z,0.3
2018-08-20T22:52:17.862Z,0.2
2018-08-20T22:54:17.637Z,0.5
2018-08-20T22:56:17.738Z,0.3
2018-08-20T22:58:17.539Z,0.1
2018-08-20T23:00:18.327Z,0.3
2018-08-20T23:02:18.157Z,0.2
2018-08-20T23:04:17.956Z,0.3
2018-08-20T23:06:18.462Z,0.2
2018-08-20T23:08:18.273Z,0.2
2018-08-20T23:10:18.535Z,0.3
2018-08-20T23:12:18.364Z,0.3
2018-08-20T23:14:18.172Z,0.3
2018-08-20T23:16:18.177Z,0.3
2018-08-20T23:18:18.052Z,0.2
2018-08-20T23:20:17.860Z,0.2
2018-08-20T23:22:17.655Z,0.3
2018-08-20T23:24:18.448Z,0.1
2018-08-20T23:26:17.557Z,0.4
2018-08-20T23:28:18.387Z,0.1
2018-08-20T23:30:18.265Z,0.1
2018-08-20T23:32:18.057Z,0.3
2018-08-20T23:34:17.880Z,0.1
2018-08-20T23:36:18.430Z,0.2
2018-08-20T23:38:18.226Z,0.5
2018-08-20T23:40:18.472Z,0.2
2018-08-20T23:42:18.263Z,0.3
2018-08-20T23:44:18.073Z,0.1
2018-08-20T23:46:17.679Z,0.2
2018-08-20T23:48:18.497Z,0.2
2018-08-20T23:50:18.374Z,0.4
2018-08-20T23:52:18.174Z,0.2
2018-08-20T23:54:17.970Z,0.1
2018-08-20T23:56:18.010Z,0
2018-08-20T23:58:17.801Z,0.5
